Airports


Current ATIS/METAR

CYWG 180515Z 06004KT 040V110 15SM -RA OVC055 10/08 A2988 RMK SC8 SLP125

  • Tower/Terminal at Winnipeg International (CYWG) is open 24/7.
  • Tower St. Andrews (CYAV) is open daily from 1300Z - 0400Z.

  • Scenery

    MapleSim - for XPlane 11+

    Freeware

    MapleSim's Winnipeg 2020 is brand new, and looks stunning (especially in snowy weather - something we are used to in winnipeg.) Developed by one of Winnipeg's own controllers, this is some of the best free XP11 scenery on the market.

    View More

    SimAddons - For FSX, P3Dv4, v5 & MSFS

    Payware

    SimAddons truly is a legend in creating scenery for Canadian airports, and the Winnipeg FIR has quite a lot of scenery from the team across the pond. Their scenery for Winnipeg isn't brand new, but is still the best available for P3D and MSFS as of late 2020.

    View More

    Orbx - for FSX & P3D

    Freeware

    ORBX is some of the best in the business at creating scenery, and Winnipeg is one of those airports available in their freeware pack. Get it now for your sim and upgrade Winnipeg for no cost.

    View More

    ProjectSierra - for P3D v4/v5

    Freeware

    P3D user who's looking for some good freeware? ProjectSierra has updated a scenery for the sim, and is available at no cost - pick it up and enjoy!.

    View More

    Current ATIS/METAR

    CYPG 172200Z 11013KT 12SM BKN080 OVC090 12/11 A2992 RMK AC6AC2 LAST OBS /NEXT 181100 UTC SLP140

  • Tower open Mon - Fri from 1400Z - 2300Z, excluding holidays.

  • Scenery

    Orbx - for FSX & P3D

    Freeware

    ORBX is some of the best in the business at creating scenery, and CYPG is one of many airports included in their free Global Airport Pack. Snag it now and get an enhanced experience at Southport.

    View More

    Current ATIS/METAR

    CYXE 180500Z 01006KT 12SM -SHRA FEW009 BKN015 OVC030 09/08 A2986 RMK SF2SC3SC3 CVCTV CLD EMBD SLP127

  • Tower open Mon - Fri between March 9th - October 31st, from 1200Z - 0445Z.
  • Tower open Sat - Sun between March 9th - October 31st, from 1245Z - 0445Z.
  • Tower open between November 1st - March 8th, from 1245Z - 0445Z.

  • Scenery

    SimAddons - For FSX, P3Dv4, v5 & MSFS

    Payware

    SimAddons, as usual, is all over Canada scenery for FSX, P3D and MSFS. No different in Saskatoon - their scenery for CYXE is great and models the airport perfectly for any pilot.

    View More

    FSXCenery - For FSX & P3Dv5

    Payware

    With their unique terminal shape and classic General Aviation ramp, Saskatoon is welcoming to both major airlines and small private pilots. FSXCenery brings the airport to life with their scenery.

    View More

    Orbx - for FSX & P3D

    Freeware

    ORBX is some of the best in the business at creating scenery. Like most airports, CYXE is covered in their freeware pack. Pick it up for zero dollars and upgrade your sim.

    View More

    Current ATIS/METAR

    CYQT 180500Z 35002KT 15SM SCT130 04/01 A3001 RMK AC4 SLP169

  • Tower open daily from 1200Z - 0400Z.

  • Scenery

    Jim Kanold - For XP11+

    Freeware

    Hiding on the eastern side of Winnipeg's airspace, this small city in Ontario is home to a major hub for small airlines and private pilots. This free scenery will update XP11 to give it the unique terminal, among other things..

    View More

    FSXCenery - For MSFS

    Payware

    FSXCenery just recently published their CYQT for MSFS package, and it looks outstanding - the terminal, the parking area, the small aprons scattered across the airport - they did it all.

    View More

    FSXCenery - For FSX & P3D

    Payware

    It isn't quite up to their MFSF standards, but FSXCenery certainly did a great job modeling Thunder Bay for this FSX/P3D scenery. Pick it up for a low cost and get flying!

    View More

    SimAddons - For FSX, P3Dv4, v5 & MSFS

    Payware

    SimAddons is here with Thunder Bay too, of course - they've had this out for some time, but the scenery still matches with the current setup in CYQT.

    View More

    Orbx - for FSX & P3D

    Freeware

    ORBX is some of the best in the business at creating scenery. Thunder Bay is just another one on their list for the team - and at no cost, it's worth grabbing if you want to up your game.

    View More

    Current ATIS/METAR

    CYQR 180500Z 02012G18KT 15SM FEW070CB SCT110 BKN170 12/08 A2976 RMK CB1AC3AC3 CB TR SLP088 DENSITY ALT 2200FT

  • Tower open between April 1st - October 31st, from 1200Z - 0400Z.
  • Tower open between November 1st - March 31st, from 1200Z - 0500Z.

  • Scenery

    Canada4XPlane - For XP10 & XP11+

    Freeware

    If you're a private pilot, flying to Regina with this scenery from C4XP is a MUST. Their modeling of everything from the terminal to the Regina Flying Club is just extremely detailed - and it's free.

    View More

    FSXCenery - For FSX & P3D

    Payware

    FSXCenery has Regina on lock for FSX and P3D - their scenery just released for the simulators models the airport great - and is a fantastic addition to any simulator for central Canada flying.

    View More

    Orbx - for FSX & P3D

    Freeware

    ORBX is some of the best in the business at creating scenery. You shouldn't be shocked that CYQR is covered in their freeware pack - it's free, it's a nice upgrade. Go get it today.

    View More

    Current ATIS/METAR

    CYMJ 172334Z 24014G21KT 15SM SCT085 OVC300 22/04 A2973 RMK CU4CI4 LAST OBS / NXT 181000 UTC SLP069

  • Tower/Terminal open between February 16st - October 31st, from 1400Z - 0030Z.
  • Tower/Terminal open between November 1st - Februaty 15th, from 1430Z - 0100Z.
  • Tower/Terminal also frequenty closed on weekends.

  • Scenery

    Orbx - for FSX & P3D

    Freeware

    ORBX is some of the best in the business at creating scenery. Moose Jaw is limited for scenery - but they've got ORBX on their side with their freeware pack - and it's a worthwile download.

    View More